Time;durP1;ratioP1;P1;durP2;ratioP2;P2;SDS_P1;SDS_P2;PMS_P1;PMS_P2;Temp;Humidity;BMP_temperature;BMP_pressure;BME280_temperature;BME280_humidity;BME280_pressure;Samples;Min_cycle;Max_cycle;Signal;HPM_P1;HPM_P2
2021/05/06 00:14:34;;;;;;;36.75;25.67;;;;;;;3.73;100.00;100761.59;4983300;28;20046;-66
2021/05/06 00:31:15;;;;;;;37.67;26.67;;;;;;;3.79;100.00;100735.66;4982726;28;20105;-67
2021/05/06 00:33:39;;;;;;;;;;;;;;;3.80;100.00;100737.41;4983112;28;20046;-64
2021/05/06 00:36:04;;;;;;;35.42;24.58;;;;;;;3.79;100.00;100720.84;4979753;28;20004;-63
2021/05/06 00:38:35;;;;;;;37.72;25.40;;;;;;;3.69;100.00;100718.81;4981958;28;20042;-67
2021/05/06 00:44:15;;;;;;;36.83;26.27;;;;;;;3.68;100.00;100727.47;4991043;28;20054;-67
2021/05/06 00:57:17;;;;;;;39.97;28.15;;;;;;;3.46;100.00;100726.81;5096850;28;20395;-67
2021/05/06 01:12:50;;;;;;;39.85;29.20;;;;;;;3.56;100.00;100720.16;5099452;28;20517;-63
2021/05/06 01:15:15;;;;;;;41.72;30.15;;;;;;;3.55;100.00;100718.38;5104008;28;20023;-63
2021/05/06 01:17:41;;;;;;;41.40;30.88;;;;;;;3.54;100.00;100713.09;5100916;28;20491;-63
2021/05/06 01:20:08;;;;;;;41.47;29.75;;;;;;;3.56;100.00;100711.44;5104036;28;20462;-63
2021/05/06 01:22:33;;;;;;;41.45;31.08;;;;;;;3.57;100.00;100718.41;5101459;28;20497;-67
2021/05/06 01:25:00;;;;;;;41.72;31.83;;;;;;;3.56;100.00;100708.81;5102826;28;20017;-67
2021/05/06 01:30:13;;;;;;;40.78;30.38;;;;;;;3.51;100.00;100710.38;5101845;28;20139;-64
2021/05/06 01:32:50;;;;;;;41.50;30.15;;;;;;;3.51;100.00;100707.78;5096758;28;20394;-67
2021/05/06 01:35:25;;;;;;;40.40;29.70;;;;;;;3.49;100.00;100708.63;5097677;28;20024;-68
2021/05/06 01:43:08;;;;;;;43.05;30.05;;;;;;;3.45;100.00;100704.16;5101070;28;20111;-64
2021/05/06 01:57:25;;;;;;;38.88;26.73;;;;;;;3.49;100.00;100699.88;5104676;28;20111;-67
2021/05/06 01:59:27;;;;;;;39.15;28.25;;;;;;;3.40;100.00;100697.88;5103066;28;20501;-64
2021/05/06 02:01:52;;;;;;;39.80;28.35;;;;;;;3.37;100.00;100704.75;5106075;28;20030;-63
2021/05/06 02:04:18;;;;;;;38.95;27.05;;;;;;;3.36;100.00;100709.06;5104475;28;20463;-68
2021/05/06 02:06:43;;;;;;;39.88;29.23;;;;;;;3.36;100.00;100714.28;5105977;28;20474;-65
2021/05/06 02:09:08;;;;;;;39.85;27.40;;;;;;;3.37;100.00;100710.84;5099687;28;20067;-63
2021/05/06 02:11:34;;;;;;;39.15;27.50;;;;;;;3.41;100.00;100717.97;5106572;28;20024;-68
2021/05/06 02:13:59;;;;;;;39.20;27.73;;;;;;;3.39;100.00;100714.38;5105105;28;20377;-68
2021/05/06 02:16:35;;;;;;;41.03;27.83;;;;;;;3.42;100.00;100705.75;5105420;28;20024;-68
2021/05/06 02:19:02;;;;;;;39.15;27.65;;;;;;;3.40;100.00;100705.72;5105009;28;20359;-68
2021/05/06 02:21:27;;;;;;;38.25;26.30;;;;;;;3.40;100.00;100702.22;5105345;28;20031;-68
2021/05/06 02:23:53;;;;;;;37.42;26.02;;;;;;;3.42;100.00;100697.94;5105879;28;20024;-69
2021/05/06 02:26:18;;;;;;;37.97;26.33;;;;;;;3.43;100.00;100700.59;5104099;28;20024;-68
2021/05/06 02:28:43;;;;;;;37.53;26.45;;;;;;;3.44;100.00;100694.53;5107290;28;20040;-68
2021/05/06 02:31:09;;;;;;;38.38;27.00;;;;;;;3.48;100.00;100701.63;5099064;28;20028;-67
2021/05/06 02:33:34;;;;;;;41.10;27.45;;;;;;;3.49;100.00;100699.88;5105956;28;20045;-68
2021/05/06 02:35:59;;;;;;;39.50;27.85;;;;;;;3.49;100.00;100705.13;5104921;28;20482;-68
2021/05/06 02:38:25;;;;;;;39.05;26.55;;;;;;;3.50;100.00;100701.66;5104646;28;20388;-68
2021/05/06 02:40:50;;;;;;;41.53;28.10;;;;;;;3.51;100.00;100692.09;5105736;28;20027;-68
2021/05/06 02:43:15;;;;;;;38.13;27.50;;;;;;;3.45;100.00;100698.00;5103761;28;20031;-67
2021/05/06 02:45:40;;;;;;;39.33;27.30;;;;;;;3.38;100.00;100693.44;5106476;28;20022;-66
2021/05/06 02:48:06;;;;;;;41.28;27.30;;;;;;;3.33;100.00;100693.28;5103239;28;20024;-68
2021/05/06 02:50:31;;;;;;;41.17;29.92;;;;;;;3.27;100.00;100683.53;5105663;28;20111;-68
2021/05/06 02:53:05;;;;;;;47.38;30.85;;;;;;;3.23;100.00;100680.78;5104528;28;20389;-68
2021/05/06 02:55:50;;;;;;;44.58;30.60;;;;;;;3.19;100.00;100685.03;5105390;28;20132;-67
2021/05/06 03:03:48;;;;;;;45.58;31.95;;;;;;;3.05;100.00;100670.66;5097789;28;20066;-67
2021/05/06 03:06:26;;;;;;;46.28;33.50;;;;;;;3.01;100.00;100674.88;5104250;28;20487;-68
2021/05/06 03:08:58;;;;;;;48.42;34.10;;;;;;;2.99;100.00;100680.91;5099157;28;20038;-67
2021/05/06 03:12:07;;;;;;;49.55;34.58;;;;;;;2.96;100.00;100679.06;5102521;28;20101;-68
2021/05/06 03:14:37;;;;;;;51.17;35.65;;;;;;;2.90;100.00;100677.16;5094065;28;20043;-67
2021/05/06 03:25:08;;;;;;;48.15;34.15;;;;;;;2.86;100.00;100674.38;5103122;28;20042;-68
2021/05/06 03:27:36;;;;;;;48.92;33.97;;;;;;;2.83;100.00;100676.91;5100851;28;20102;-68
2021/05/06 03:43:44;;;;;;;55.08;37.22;;;;;;;2.72;100.00;100672.22;5000831;28;20041;-67
2021/05/06 04:27:35;;;;;;;63.45;44.38;;;;;;;3.07;100.00;100672.47;4951317;29;20039;-67
2021/05/06 04:35:38;;;;;;;59.40;41.88;;;;;;;3.02;100.00;100675.78;4914151;29;20043;-67
2021/05/06 04:38:05;;;;;;;55.45;39.78;;;;;;;2.99;100.00;100679.16;4914204;29;20094;-64
2021/05/06 05:15:02;;;;;;;55.38;38.70;;;;;;;3.33;100.00;100687.19;5011612;28;20035;-63
2021/05/06 05:20:05;;;;;;;53.78;35.42;;;;;;;3.31;100.00;100684.53;5030028;28;20445;-64
2021/05/06 05:25:21;;;;;;;53.55;35.88;;;;;;;3.26;100.00;100678.25;5030575;28;20093;-63
2021/05/06 05:27:47;;;;;;;51.70;35.33;;;;;;;3.24;100.00;100674.72;5033642;28;20079;-65
2021/05/06 05:30:14;;;;;;;46.33;31.60;;;;;;;3.25;100.00;100669.56;5033625;28;20903;-67
2021/05/06 05:32:40;;;;;;;48.15;31.75;;;;;;;3.27;100.00;100667.84;5033503;28;20049;-67
2021/05/06 05:35:13;;;;;;;46.70;31.63;;;;;;;3.26;100.00;100675.66;5033539;28;20030;-67
2021/05/06 05:37:43;;;;;;;48.25;30.95;;;;;;;3.33;100.00;100682.84;5033249;28;20104;-66
2021/05/06 05:45:47;;;;;;;44.90;29.50;;;;;;;3.43;100.00;100684.03;5026774;28;20048;-67
2021/05/06 05:56:31;;;;;;;42.83;27.55;;;;;;;3.56;100.00;100687.91;5048965;28;20036;-66
2021/05/06 05:58:57;;;;;;;44.45;28.45;;;;;;;3.62;100.00;100690.69;5051008;28;20041;-64
2021/05/06 06:01:27;;;;;;;44.50;28.90;;;;;;;3.68;100.00;100690.88;5051511;28;20549;-64
2021/05/06 06:03:52;;;;;;;43.45;27.40;;;;;;;3.72;100.00;100687.50;5048765;28;20129;-64
2021/05/06 06:06:17;;;;;;;44.38;29.30;;;;;;;3.75;100.00;100687.59;5051720;28;20495;-64
2021/05/06 06:08:43;;;;;;;45.08;29.73;;;;;;;3.81;100.00;100695.63;5050971;28;20040;-64
2021/05/06 06:11:08;;;;;;;42.38;28.10;;;;;;;3.85;100.00;100691.38;5051336;28;20048;-65
2021/05/06 06:13:34;;;;;;;44.90;29.23;;;;;;;3.97;100.00;100689.09;5041030;28;20124;-63
2021/05/06 06:16:08;;;;;;;47.17;31.63;;;;;;;4.03;100.00;100688.41;5050201;28;20060;-64
2021/05/06 06:18:45;;;;;;;45.03;30.40;;;;;;;4.13;100.00;100690.44;5050410;28;20499;-65
2021/05/06 06:23:55;;;;;;;43.50;30.00;;;;;;;4.14;100.00;100692.22;5062603;28;20440;-64
2021/05/06 06:26:20;;;;;;;45.20;30.77;;;;;;;4.23;100.00;100693.31;5099828;28;20028;-65
2021/05/06 06:28:48;;;;;;;47.92;32.53;;;;;;;4.34;100.00;100689.28;5099563;28;20048;-64
2021/05/06 06:31:29;;;;;;;46.25;31.50;;;;;;;4.38;100.00;100685.88;5100195;28;20078;-65
2021/05/06 06:33:56;;;;;;;45.47;30.77;;;;;;;4.53;100.00;100694.16;5100687;28;20124;-65
2021/05/06 06:36:22;;;;;;;46.92;32.40;;;;;;;4.67;100.00;100698.84;5096523;28;20057;-66
2021/05/06 06:38:49;;;;;;;44.20;29.90;;;;;;;4.67;100.00;100691.00;5103247;28;20024;-70
2021/05/06 06:41:14;;;;;;;45.08;31.27;;;;;;;4.70;100.00;100685.84;5098039;28;20023;-69
2021/05/06 06:43:42;;;;;;;46.40;32.72;;;;;;;4.97;100.00;100693.50;5098187;28;20028;-70
2021/05/06 06:46:08;;;;;;;43.95;31.23;;;;;;;5.10;100.00;100689.47;5098760;28;20047;-68
2021/05/06 06:48:33;;;;;;;44.80;31.88;;;;;;;5.15;100.00;100685.19;5100738;28;20039;-68
2021/05/06 06:50:59;;;;;;;44.70;32.67;;;;;;;5.23;100.00;100688.91;5099489;28;20453;-68
2021/05/06 06:53:24;;;;;;;50.88;39.67;;;;;;;5.28;100.00;100688.13;5097163;28;20026;-70
2021/05/06 06:55:49;;;;;;;45.72;32.28;;;;;;;5.46;100.00;100672.84;5101004;28;20019;-69
2021/05/06 06:58:16;;;;;;;45.83;33.85;;;;;;;5.68;100.00;100679.44;5099000;28;20081;-69
2021/05/06 07:00:43;;;;;;;41.15;30.00;;;;;;;5.61;97.11;100680.16;5097726;28;20032;-73
2021/05/06 07:03:09;;;;;;;42.17;29.50;;;;;;;5.57;100.00;100679.19;5100702;28;20127;-69
2021/05/06 07:05:35;;;;;;;45.85;34.15;;;;;;;5.71;99.44;100678.63;5100001;28;20022;-70
2021/05/06 07:08:15;;;;;;;44.42;33.03;;;;;;;5.66;97.02;100675.00;5100577;28;20046;-69
2021/05/06 07:10:43;;;;;;;45.47;32.78;;;;;;;5.65;98.28;100662.72;5097283;28;20036;-67
2021/05/06 07:13:08;;;;;;;47.92;34.03;;;;;;;5.77;97.43;100670.88;5100131;28;20016;-67
2021/05/06 07:15:34;;;;;;;44.78;32.28;;;;;;;5.86;97.57;100673.69;5097762;28;20024;-69
2021/05/06 07:17:59;;;;;;;47.30;34.80;;;;;;;6.06;98.06;100670.63;5101009;28;20034;-70
2021/05/06 07:20:25;;;;;;;47.63;36.65;;;;;;;6.15;91.47;100673.44;5100307;28;20027;-68
2021/05/06 07:22:51;;;;;;;42.10;32.17;;;;;;;6.14;87.88;100674.28;5100900;28;20024;-67
2021/05/06 07:25:16;;;;;;;43.33;34.28;;;;;;;6.04;87.06;100665.34;5098673;28;20032;-66
2021/05/06 07:27:41;;;;;;;40.65;30.77;;;;;;;6.10;87.68;100661.94;5098526;28;20024;-64
2021/05/06 07:30:08;;;;;;;44.00;33.78;;;;;;;6.23;88.37;100665.69;5099335;28;20036;-65
2021/05/06 07:32:33;;;;;;;40.17;29.20;;;;;;;6.29;83.42;100663.16;5101238;28;20044;-67
2021/05/06 07:34:59;;;;;;;39.70;29.35;;;;;;;6.33;84.55;100664.13;5100506;28;20020;-67
2021/05/06 07:37:24;;;;;;;42.20;30.13;;;;;;;6.44;85.44;100673.09;5097673;28;20028;-65
2021/05/06 07:39:49;;;;;;;38.40;27.75;;;;;;;6.53;83.75;100672.38;5101727;28;20466;-64
2021/05/06 07:42:15;;;;;;;37.88;26.38;;;;;;;6.74;82.35;100674.50;5100256;28;20028;-64
2021/05/06 07:44:40;;;;;;;36.42;26.70;;;;;;;6.86;82.24;100679.97;5099859;28;20020;-67
2021/05/06 07:47:10;;;;;;;38.63;28.70;;;;;;;7.01;81.65;100681.09;5101775;28;20031;-67
2021/05/06 07:49:36;;;;;;;38.78;28.70;;;;;;;7.11;80.86;100678.63;5104002;28;20020;-67
2021/05/06 07:52:01;;;;;;;35.63;26.73;;;;;;;7.08;77.43;100677.69;5097611;28;20031;-64
2021/05/06 07:54:26;;;;;;;36.30;26.30;;;;;;;7.11;76.15;100667.22;5104151;28;20031;-66
2021/05/06 07:56:52;;;;;;;37.88;27.60;;;;;;;7.26;79.19;100675.34;5102759;28;20072;-67
2021/05/06 07:59:17;;;;;;;37.03;28.27;;;;;;;7.36;75.42;100683.38;5102995;28;20073;-67
2021/05/06 08:01:42;;;;;;;36.75;26.98;;;;;;;7.53;75.13;100671.38;5103926;28;20114;-67
2021/05/06 08:04:08;;;;;;;37.05;26.58;;;;;;;7.85;75.08;100671.78;5096397;28;20363;-65
2021/05/06 08:06:33;;;;;;;35.53;26.15;;;;;;;7.84;75.10;100662.13;5098581;28;20040;-64
2021/05/06 08:08:59;;;;;;;34.80;23.92;;;;;;;8.05;72.21;100659.72;5099982;28;20020;-64
2021/05/06 08:11:25;;;;;;;31.83;22.50;;;;;;;8.35;70.43;100649.53;5097170;28;20020;-64
2021/05/06 08:13:50;;;;;;;33.60;22.85;;;;;;;8.58;72.15;100650.66;5097892;28;20016;-64
2021/05/06 08:16:16;;;;;;;31.00;20.58;;;;;;;8.62;69.42;100640.19;5095198;28;20076;-64
2021/05/06 08:18:41;;;;;;;31.58;21.77;;;;;;;8.73;70.30;100640.25;5094485;28;20032;-64
2021/05/06 08:21:07;;;;;;;31.98;20.98;;;;;;;8.89;68.45;100631.59;5100132;28;20024;-64
2021/05/06 08:23:33;;;;;;;31.02;21.65;;;;;;;9.49;67.18;100632.88;5096930;28;20020;-65
2021/05/06 08:25:58;;;;;;;29.13;19.52;;;;;;;10.41;63.73;100630.63;5096235;28;20024;-66
2021/05/06 08:28:23;;;;;;;30.45;20.90;;;;;;;10.38;59.48;100625.31;5097068;28;20482;-66
2021/05/06 08:30:49;;;;;;;28.58;19.85;;;;;;;10.05;60.51;100629.59;5097346;28;20051;-65
2021/05/06 08:33:14;;;;;;;27.80;17.88;;;;;;;9.61;61.72;100632.97;5098124;28;20084;-66
2021/05/06 08:35:40;;;;;;;30.20;20.05;;;;;;;9.10;63.88;100624.75;5097674;28;20072;-65
2021/05/06 08:38:05;;;;;;;29.55;18.73;;;;;;;8.76;63.29;100626.22;5101105;28;20492;-65
2021/05/06 08:40:31;;;;;;;29.67;18.13;;;;;;;8.50;64.22;100626.88;5095568;28;20394;-65
2021/05/06 08:42:57;;;;;;;28.23;17.70;;;;;;;8.33;64.97;100632.84;5097955;28;20031;-66
2021/05/06 08:45:26;;;;;;;29.08;17.48;;;;;;;8.18;63.61;100636.22;5100894;28;20049;-65
2021/05/06 08:47:52;;;;;;;28.05;16.92;;;;;;;8.21;65.22;100635.31;5098644;28;20032;-65
2021/05/06 08:50:19;;;;;;;26.27;15.15;;;;;;;9.06;63.86;100629.09;5101903;28;20031;-65
2021/05/06 08:52:47;;;;;;;25.42;14.20;;;;;;;10.05;61.97;100637.53;5100174;28;20455;-66
2021/05/06 08:55:13;;;;;;;26.00;13.77;;;;;;;10.01;59.56;100630.47;5099595;28;20020;-65
2021/05/06 08:57:38;;;;;;;25.92;12.93;;;;;;;9.46;60.08;100630.22;5104972;28;20434;-64
2021/05/06 09:00:04;;;;;;;25.52;13.70;;;;;;;9.01;60.30;100624.66;5106978;28;20367;-64
2021/05/06 09:02:29;;;;;;;26.25;14.48;;;;;;;8.95;61.95;100628.13;5102472;28;20036;-67
2021/05/06 09:04:55;;;;;;;26.58;14.52;;;;;;;8.75;62.48;100630.59;5097949;28;20039;-64
2021/05/06 09:07:21;;;;;;;25.50;14.20;;;;;;;8.58;62.64;100632.22;5094429;28;20101;-65
2021/05/06 09:09:51;;;;;;;26.20;14.88;;;;;;;8.43;64.20;100636.47;5095020;28;20027;-62
2021/05/06 09:12:32;;;;;;;27.25;14.93;;;;;;;8.22;63.56;100630.97;5096511;28;20024;-63
2021/05/06 09:15:08;;;;;;;25.08;13.70;;;;;;;8.14;62.30;100638.75;5095767;28;20024;-63
2021/05/06 09:17:34;;;;;;;27.08;14.95;;;;;;;8.15;62.76;100640.53;5096107;28;20020;-64
2021/05/06 09:20:31;;;;;;;26.35;14.55;;;;;;;8.63;63.83;100638.41;5095968;28;20043;-63
2021/05/06 09:22:59;;;;;;;25.63;13.40;;;;;;;9.83;58.72;100633.94;5052307;28;20560;-63
2021/05/06 09:25:35;;;;;;;25.52;13.18;;;;;;;10.93;55.77;100626.22;5052844;28;20107;-63
2021/05/06 09:28:06;;;;;;;25.55;12.60;;;;;;;12.30;53.94;100617.81;5067402;28;20029;-63
2021/05/06 09:30:35;;;;;;;23.02;11.25;;;;;;;12.38;49.45;100625.75;5060462;28;20553;-63
2021/05/06 09:33:04;;;;;;;22.92;11.65;;;;;;;12.05;51.83;100616.25;5062534;28;20032;-63
2021/05/06 09:35:39;;;;;;;23.10;11.00;;;;;;;14.11;46.14;100613.38;5062216;28;20074;-63
2021/05/06 09:38:04;;;;;;;22.05;10.50;;;;;;;15.80;41.69;100614.09;5060954;28;20052;-63
2021/05/06 09:40:48;;;;;;;23.33;10.07;;;;;;;14.67;42.95;100610.81;5056081;28;20071;-63
2021/05/06 09:43:32;;;;;;;22.95;10.65;;;;;;;13.77;46.37;100611.19;5053793;28;20044;-63
2021/05/06 09:45:59;;;;;;;22.95;10.27;;;;;;;14.69;41.44;100605.47;5055849;28;20029;-64
2021/05/06 09:48:25;;;;;;;22.67;10.88;;;;;;;14.81;42.13;100607.97;5062367;28;20052;-65
2021/05/06 09:50:58;;;;;;;23.40;11.25;;;;;;;14.70;42.83;100604.59;5063546;28;20060;-64
2021/05/06 09:53:25;;;;;;;;;;;;;;;14.85;46.11;100604.31;5064120;28;20499;-65
2021/05/06 09:55:55;;;;;;;22.65;10.60;;;;;;;15.67;43.28;100603.66;5062296;28;19920;-65
2021/05/06 09:58:23;;;;;;;21.67;9.57;;;;;;;16.29;36.98;100589.00;5081320;28;20483;-64
2021/05/06 10:00:50;;;;;;;22.65;10.38;;;;;;;15.24;41.02;100595.66;5098574;28;20032;-65
2021/05/06 10:03:18;;;;;;;22.17;10.20;;;;;;;15.45;38.24;100605.00;5100960;28;20032;-67
2021/05/06 10:05:45;;;;;;;22.92;10.50;;;;;;;14.67;38.63;100599.31;5106903;28;20055;-67
2021/05/06 10:08:11;;;;;;;23.92;11.43;;;;;;;13.22;44.08;100589.66;5103033;28;20020;-67
2021/05/06 10:10:38;;;;;;;24.02;11.23;;;;;;;13.67;44.57;100590.97;5106375;28;20423;-67
2021/05/06 10:13:05;;;;;;;22.85;11.05;;;;;;;15.49;41.89;100588.94;5104890;28;20467;-67
2021/05/06 10:15:31;;;;;;;22.70;11.50;;;;;;;17.15;38.25;100583.34;5105077;28;20032;-65
2021/05/06 10:17:57;;;;;;;23.42;10.80;;;;;;;18.87;34.41;100580.88;5106155;28;20474;-68
2021/05/06 10:20:25;;;;;;;23.33;11.27;;;;;;;19.78;33.60;100566.88;5103963;28;20031;-67
2021/05/06 10:22:51;;;;;;;22.83;10.85;;;;;;;19.59;32.39;100572.06;5106620;28;20106;-67
2021/05/06 10:25:21;;;;;;;20.90;9.50;;;;;;;19.05;30.64;100577.56;5101997;28;20123;-67
2021/05/06 10:27:47;;;;;;;20.08;8.68;;;;;;;18.04;31.28;100574.59;5099711;28;20032;-66
2021/05/06 10:30:13;;;;;;;21.92;9.13;;;;;;;18.11;28.82;100567.25;5106544;28;20038;-63
2021/05/06 10:32:40;;;;;;;20.13;7.90;;;;;;;17.81;29.72;100558.31;5104003;28;20040;-64
2021/05/06 10:35:08;;;;;;;20.95;8.63;;;;;;;17.02;29.14;100558.78;5105663;28;20062;-63
2021/05/06 10:37:35;;;;;;;20.92;8.70;;;;;;;17.88;29.70;100558.13;5104743;28;20115;-64
2021/05/06 10:40:01;;;;;;;21.83;9.70;;;;;;;17.80;28.17;100557.47;5104810;28;20032;-64
2021/05/06 10:42:30;;;;;;;20.50;9.23;;;;;;;17.34;30.61;100551.66;5105402;28;20509;-64
2021/05/06 10:45:13;;;;;;;22.40;9.63;;;;;;;15.67;33.63;100545.06;5103944;28;20031;-64
2021/05/06 10:47:41;;;;;;;21.83;10.30;;;;;;;14.92;36.60;100539.44;5097996;28;20028;-65
2021/05/06 10:50:15;;;;;;;21.70;10.00;;;;;;;14.44;37.81;100537.56;5100495;28;20149;-64
2021/05/06 10:52:43;;;;;;;21.58;9.80;;;;;;;13.59;38.33;100536.16;5102205;28;20028;-63
2021/05/06 10:55:10;;;;;;;22.65;11.02;;;;;;;13.05;39.67;100541.19;5101567;28;20023;-64
2021/05/06 10:57:37;;;;;;;23.13;10.95;;;;;;;13.15;39.44;100534.91;5100522;28;20036;-65
2021/05/06 11:00:23;;;;;;;23.20;10.55;;;;;;;14.97;37.46;100529.59;5097318;28;20035;-65
2021/05/06 11:02:57;;;;;;;22.83;10.98;;;;;;;14.08;38.30;100525.72;5093589;28;20012;-63
2021/05/06 11:05:29;;;;;;;21.73;10.70;;;;;;;13.83;36.72;100518.13;5095615;28;20028;-66
2021/05/06 11:08:07;;;;;;;21.88;10.52;;;;;;;13.82;37.53;100521.69;5092068;28;20496;-64
2021/05/06 11:10:45;;;;;;;22.67;10.63;;;;;;;14.16;37.66;100513.22;5089503;28;20043;-64
2021/05/06 11:13:11;;;;;;;22.80;9.43;;;;;;;15.23;35.17;100506.91;5091246;28;20020;-66
2021/05/06 11:15:37;;;;;;;21.10;9.80;;;;;;;16.25;34.55;100504.69;5095302;28;20020;-65
2021/05/06 11:18:05;;;;;;;21.38;9.30;;;;;;;16.79;30.61;100510.41;5099727;28;20072;-64
2021/05/06 11:20:31;;;;;;;21.02;8.63;;;;;;;15.80;33.09;100502.16;5103026;28;20027;-64
2021/05/06 11:23:01;;;;;;;22.00;9.50;;;;;;;15.85;32.24;100498.50;5104560;28;20024;-65
2021/05/06 11:27:58;;;;;;;21.85;9.77;;;;;;;16.38;31.27;100489.22;5102059;28;20489;-64
2021/05/06 11:30:37;;;;;;;21.63;9.05;;;;;;;18.48;31.21;100488.47;5104857;28;20471;-64
2021/05/06 11:35:56;;;;;;;20.65;8.93;;;;;;;18.57;29.31;100481.94;5098684;28;20035;-65
2021/05/06 11:38:41;;;;;;;20.63;8.75;;;;;;;18.06;29.48;100473.78;5101522;28;20073;-64
2021/05/06 11:41:07;;;;;;;20.00;8.45;;;;;;;17.90;28.73;100470.72;5102483;28;20062;-68
2021/05/06 11:43:34;;;;;;;20.65;8.77;;;;;;;17.66;29.72;100471.47;5105020;28;20027;-68
2021/05/06 11:46:07;;;;;;;21.65;9.77;;;;;;;17.41;29.84;100464.19;5097136;28;20032;-65
2021/05/06 11:48:37;;;;;;;21.50;9.52;;;;;;;16.48;32.78;100468.53;5101074;28;20130;-68
2021/05/06 11:51:03;;;;;;;22.25;9.60;;;;;;;15.91;35.12;100464.63;5102963;28;20024;-70
2021/05/06 11:53:29;;;;;;;20.80;9.43;;;;;;;15.29;34.27;100461.53;5103704;28;20051;-64
2021/05/06 11:55:54;;;;;;;21.98;9.85;;;;;;;14.46;35.49;100456.00;5102351;28;20131;-65
2021/05/06 11:58:28;;;;;;;22.27;10.23;;;;;;;13.88;37.40;100457.84;5104796;28;20050;-64
2021/05/06 12:00:55;;;;;;;22.02;9.77;;;;;;;13.02;39.61;100462.50;5099252;28;20032;-69
2021/05/06 12:03:34;;;;;;;22.33;9.85;;;;;;;12.82;40.32;100462.72;5105204;28;20023;-66
2021/05/06 12:06:00;;;;;;;21.65;9.32;;;;;;;12.85;40.86;100465.34;5098385;28;20054;-68
2021/05/06 12:08:28;;;;;;;22.38;9.18;;;;;;;12.59;37.82;100457.66;5101374;28;20016;-69
2021/05/06 12:10:55;;;;;;;22.23;9.75;;;;;;;12.46;39.85;100454.25;5097553;28;20126;-68
2021/05/06 12:13:28;;;;;;;23.67;10.57;;;;;;;12.64;39.51;100449.66;5098966;28;20032;-68
2021/05/06 12:16:22;;;;;;;23.08;10.40;;;;;;;12.68;40.51;100468.19;5096689;28;20069;-68
2021/05/06 12:19:07;;;;;;;25.15;12.40;;;;;;;12.62;41.69;100456.75;5100614;28;20111;-68
2021/05/06 12:21:48;;;;;;;23.10;11.95;;;;;;;12.81;41.83;100458.31;5097490;28;20421;-67
2021/05/06 12:24:26;;;;;;;23.70;11.77;;;;;;;13.03;42.09;100448.34;5098432;28;20020;-66
2021/05/06 12:26:51;;;;;;;23.33;11.50;;;;;;;13.33;40.54;100454.16;5097257;28;20016;-68
2021/05/06 12:29:29;;;;;;;22.85;11.15;;;;;;;13.54;41.08;100444.16;5099881;28;20129;-72
2021/05/06 12:31:55;;;;;;;21.67;10.93;;;;;;;13.64;41.12;100452.88;5090812;28;20571;-65
2021/05/06 12:34:22;;;;;;;21.90;10.02;;;;;;;13.65;39.34;100446.69;5093170;28;20066;-64
2021/05/06 12:36:54;;;;;;;21.88;9.60;;;;;;;13.54;40.08;100445.06;5097915;28;20438;-64
2021/05/06 12:39:20;;;;;;;20.55;8.90;;;;;;;13.51;39.82;100438.91;5093227;28;20035;-64
2021/05/06 12:42:05;;;;;;;21.30;8.40;;;;;;;14.33;38.61;100442.94;5093009;28;20261;-64
2021/05/06 12:44:42;;;;;;;21.05;9.35;;;;;;;15.92;35.25;100442.41;5093505;28;20152;-65
2021/05/06 12:47:13;;;;;;;22.00;8.82;;;;;;;16.30;34.66;100435.22;5092686;28;20020;-66
2021/05/06 12:49:38;;;;;;;20.48;9.07;;;;;;;16.62;34.35;100434.38;5090464;28;20020;-64
2021/05/06 12:52:04;;;;;;;20.00;8.48;;;;;;;17.59;32.10;100433.34;5093811;28;20024;-70
2021/05/06 12:54:36;;;;;;;21.27;9.05;;;;;;;18.31;32.44;100430.16;5092999;28;20027;-75
2021/05/06 12:57:15;;;;;;;20.85;8.85;;;;;;;18.79;32.04;100424.00;5092072;28;20384;-65
2021/05/06 12:59:47;;;;;;;20.45;8.57;;;;;;;18.66;30.92;100419.16;5093580;28;20121;-64
2021/05/06 13:02:14;;;;;;;19.48;8.85;;;;;;;18.56;30.71;100413.25;5090846;28;20024;-65
2021/05/06 13:04:54;;;;;;;20.25;8.05;;;;;;;19.54;29.60;100406.03;5091621;28;20028;-67
2021/05/06 13:07:19;;;;;;;19.73;7.50;;;;;;;21.39;24.60;100402.53;5091675;28;20027;-65
2021/05/06 13:09:48;;;;;;;19.83;8.70;;;;;;;22.69;24.13;100412.25;5094434;28;20023;-70
2021/05/06 13:12:19;;;;;;;20.17;8.48;;;;;;;23.38;23.24;100397.72;5092664;28;20020;-70
2021/05/06 13:14:50;;;;;;;20.35;8.15;;;;;;;22.88;23.47;100391.47;5091771;28;20055;-66
2021/05/06 13:17:23;;;;;;;20.80;8.75;;;;;;;21.40;25.97;100382.78;5093084;28;20031;-66
2021/05/06 13:19:49;;;;;;;20.08;8.30;;;;;;;20.14;26.35;100387.50;5092376;28;20466;-66
2021/05/06 13:22:14;;;;;;;19.10;8.02;;;;;;;19.20;27.38;100383.25;5090723;28;20123;-66
2021/05/06 13:24:41;;;;;;;20.02;8.40;;;;;;;18.63;28.14;100385.34;5098456;28;20386;-64
2021/05/06 13:27:16;;;;;;;20.65;8.52;;;;;;;17.52;30.15;100383.72;5098470;28;20076;-65
2021/05/06 13:29:59;;;;;;;19.50;8.10;;;;;;;17.10;29.83;100387.66;5090783;28;20491;-65
2021/05/06 13:32:36;;;;;;;21.00;7.93;;;;;;;16.47;30.62;100384.09;5091204;28;20042;-67
2021/05/06 13:35:05;;;;;;;20.38;8.10;;;;;;;16.31;31.40;100375.63;5090248;28;20031;-68
2021/05/06 13:37:41;;;;;;;20.52;8.15;;;;;;;16.38;32.46;100379.88;5094351;28;20027;-71
2021/05/06 13:40:07;;;;;;;19.73;8.20;;;;;;;16.00;31.44;100372.00;5089252;28;20063;-69
2021/05/06 13:42:33;;;;;;;20.55;8.27;;;;;;;15.73;31.64;100367.28;5090261;28;20036;-72
2021/05/06 13:44:59;;;;;;;19.77;8.13;;;;;;;15.69;33.16;100359.38;5100422;28;20024;-67
2021/05/06 13:47:25;;;;;;;20.60;8.60;;;;;;;15.13;33.50;100361.56;5100456;28;20070;-68
2021/05/06 13:49:51;;;;;;;20.70;9.00;;;;;;;14.90;32.35;100360.31;5100216;28;20024;-67
2021/05/06 13:52:17;;;;;;;21.27;9.27;;;;;;;15.10;33.19;100356.31;5102112;28;20428;-67
2021/05/06 13:54:43;;;;;;;20.42;8.95;;;;;;;15.10;32.31;100348.31;5099460;28;20081;-67
2021/05/06 13:57:08;;;;;;;21.40;9.20;;;;;;;15.38;33.14;100347.69;5100339;28;20462;-66
2021/05/06 13:59:33;;;;;;;20.65;8.93;;;;;;;15.63;34.06;100342.69;5100926;28;20016;-67
2021/05/06 14:01:59;;;;;;;20.45;8.60;;;;;;;16.47;32.42;100350.28;5099586;28;20371;-67
2021/05/06 14:04:24;;;;;;;21.10;9.00;;;;;;;17.82;30.26;100348.91;5099558;28;20493;-67
2021/05/06 14:06:51;;;;;;;20.30;8.70;;;;;;;18.25;28.52;100344.78;5103442;28;20142;-67
2021/05/06 14:09:18;;;;;;;20.08;8.48;;;;;;;18.55;28.79;100336.56;5101494;28;20032;-67
2021/05/06 14:11:44;;;;;;;21.60;8.82;;;;;;;19.08;27.23;100339.06;5107135;28;20020;-68
2021/05/06 14:14:13;;;;;;;20.33;8.70;;;;;;;20.11;27.89;100341.16;5102756;28;20043;-68
2021/05/06 14:16:40;;;;;;;20.35;8.05;;;;;;;21.32;25.43;100333.88;5104968;28;20032;-69
2021/05/06 14:19:07;;;;;;;19.02;7.30;;;;;;;21.47;24.64;100334.97;5102859;28;20027;-68
2021/05/06 14:21:34;;;;;;;20.23;7.57;;;;;;;20.96;25.54;100327.53;5101841;28;20027;-68
2021/05/06 14:23:59;;;;;;;19.65;7.30;;;;;;;20.73;25.62;100331.28;5105024;28;20099;-68
2021/05/06 14:26:25;;;;;;;20.05;8.18;;;;;;;18.87;25.74;100322.00;5106324;28;20115;-67
2021/05/06 14:28:50;;;;;;;19.05;7.35;;;;;;;17.95;28.67;100320.84;5107220;28;20110;-69
2021/05/06 14:31:15;;;;;;;19.23;7.95;;;;;;;17.45;30.52;100323.41;5101432;28;20044;-69
2021/05/06 14:33:41;;;;;;;20.40;7.68;;;;;;;17.28;30.29;100316.78;5103618;28;20020;-67
2021/05/06 14:36:10;;;;;;;21.00;7.60;;;;;;;17.14;30.87;100314.56;5102949;28;20447;-67
2021/05/06 14:38:36;;;;;;;22.60;10.50;;;;;;;16.70;35.32;100327.41;5103203;28;20020;-67
2021/05/06 14:41:02;;;;;;;25.60;12.80;;;;;;;15.95;37.05;100325.03;5104584;28;20028;-67
2021/05/06 14:43:27;;;;;;;25.38;13.32;;;;;;;15.74;38.28;100324.66;5102072;28;20035;-68
2021/05/06 14:45:53;;;;;;;25.02;13.43;;;;;;;15.54;40.40;100322.47;5100756;28;20028;-66
2021/05/06 14:48:18;;;;;;;24.40;13.30;;;;;;;15.56;39.26;100328.63;5103694;28;20103;-68
2021/05/06 14:50:44;;;;;;;24.88;13.68;;;;;;;15.52;40.64;100321.63;5102232;28;20024;-66